sensor_id;sensor_type;location;lat;lon;timestamp;P1;durP1;ratioP1;P2;durP2;ratioP2
16804;SDS011;8520;50.102;20.010;2023-02-03T00:00:42;13.93;;;13.10;;
16804;SDS011;8520;50.102;20.010;2023-02-03T00:03:10;13.33;;;12.57;;
16804;SDS011;8520;50.102;20.010;2023-02-03T00:05:38;13.50;;;12.70;;
16804;SDS011;8520;50.102;20.010;2023-02-03T00:08:07;12.13;;;11.53;;
16804;SDS011;8520;50.102;20.010;2023-02-03T00:10:36;11.73;;;11.13;;
16804;SDS011;8520;50.102;20.010;2023-02-03T00:13:06;11.50;;;10.90;;
16804;SDS011;8520;50.102;20.010;2023-02-03T00:15:35;10.70;;;10.00;;
16804;SDS011;8520;50.102;20.010;2023-02-03T00:18:04;11.30;;;10.60;;
16804;SDS011;8520;50.102;20.010;2023-02-03T00:20:33;9.60;;;9.10;;
16804;SDS011;8520;50.102;20.010;2023-02-03T00:23:04;9.27;;;8.77;;
16804;SDS011;8520;50.102;20.010;2023-02-03T00:25:33;9.07;;;8.57;;
16804;SDS011;8520;50.102;20.010;2023-02-03T00:28:01;9.10;;;8.60;;
16804;SDS011;8520;50.102;20.010;2023-02-03T00:30:30;9.37;;;8.87;;
16804;SDS011;8520;50.102;20.010;2023-02-03T00:33:00;9.27;;;8.73;;
16804;SDS011;8520;50.102;20.010;2023-02-03T00:35:29;9.30;;;8.70;;
16804;SDS011;8520;50.102;20.010;2023-02-03T00:37:58;9.43;;;8.83;;
16804;SDS011;8520;50.102;20.010;2023-02-03T00:40:26;8.80;;;8.30;;
16804;SDS011;8520;50.102;20.010;2023-02-03T00:42:55;9.03;;;8.43;;
16804;SDS011;8520;50.102;20.010;2023-02-03T00:45:24;8.27;;;7.77;;
16804;SDS011;8520;50.102;20.010;2023-02-03T00:47:52;8.03;;;7.53;;
16804;SDS011;8520;50.102;20.010;2023-02-03T00:50:21;7.67;;;7.17;;
16804;SDS011;8520;50.102;20.010;2023-02-03T00:52:50;7.00;;;6.60;;
16804;SDS011;8520;50.102;20.010;2023-02-03T00:55:18;6.50;;;6.10;;
16804;SDS011;8520;50.102;20.010;2023-02-03T00:57:46;5.57;;;5.27;;
16804;SDS011;8520;50.102;20.010;2023-02-03T01:00:15;4.40;;;4.10;;
16804;SDS011;8520;50.102;20.010;2023-02-03T01:02:43;3.80;;;3.60;;
16804;SDS011;8520;50.102;20.010;2023-02-03T01:05:12;3.70;;;3.50;;
16804;SDS011;8520;50.102;20.010;2023-02-03T01:07:40;3.37;;;3.17;;
16804;SDS011;8520;50.102;20.010;2023-02-03T01:10:11;3.30;;;3.10;;
16804;SDS011;8520;50.102;20.010;2023-02-03T01:12:40;3.40;;;3.20;;
16804;SDS011;8520;50.102;20.010;2023-02-03T01:15:08;3.20;;;3.00;;
16804;SDS011;8520;50.102;20.010;2023-02-03T01:17:37;2.90;;;2.80;;
16804;SDS011;8520;50.102;20.010;2023-02-03T01:20:05;2.93;;;2.73;;
16804;SDS011;8520;50.102;20.010;2023-02-03T01:22:34;2.87;;;2.67;;
16804;SDS011;8520;50.102;20.010;2023-02-03T01:25:02;2.60;;;2.50;;
16804;SDS011;8520;50.102;20.010;2023-02-03T01:27:31;2.70;;;2.50;;
16804;SDS011;8520;50.102;20.010;2023-02-03T01:30:00;3.00;;;2.80;;
16804;SDS011;8520;50.102;20.010;2023-02-03T01:32:28;3.00;;;2.80;;
16804;SDS011;8520;50.102;20.010;2023-02-03T01:34:56;3.10;;;2.90;;
16804;SDS011;8520;50.102;20.010;2023-02-03T01:37:24;3.33;;;3.13;;
16804;SDS011;8520;50.102;20.010;2023-02-03T01:39:52;3.80;;;3.50;;
16804;SDS011;8520;50.102;20.010;2023-02-03T01:42:21;3.50;;;3.30;;
16804;SDS011;8520;50.102;20.010;2023-02-03T01:44:50;3.67;;;3.40;;
16804;SDS011;8520;50.102;20.010;2023-02-03T01:47:23;4.17;;;3.90;;
16804;SDS011;8520;50.102;20.010;2023-02-03T01:49:56;5.50;;;5.10;;
16804;SDS011;8520;50.102;20.010;2023-02-03T01:52:29;6.93;;;6.43;;
16804;SDS011;8520;50.102;20.010;2023-02-03T01:55:01;7.77;;;7.17;;
16804;SDS011;8520;50.102;20.010;2023-02-03T01:57:37;9.30;;;8.47;;
16804;SDS011;8520;50.102;20.010;2023-02-03T02:00:11;9.80;;;9.00;;
16804;SDS011;8520;50.102;20.010;2023-02-03T02:02:40;9.80;;;9.00;;
16804;SDS011;8520;50.102;20.010;2023-02-03T02:05:13;9.53;;;8.80;;
16804;SDS011;8520;50.102;20.010;2023-02-03T02:07:47;9.70;;;9.10;;
16804;SDS011;8520;50.102;20.010;2023-02-03T02:10:16;9.50;;;8.90;;
16804;SDS011;8520;50.102;20.010;2023-02-03T02:12:45;9.10;;;8.50;;
16804;SDS011;8520;50.102;20.010;2023-02-03T02:15:16;8.93;;;8.23;;
16804;SDS011;8520;50.102;20.010;2023-02-03T02:17:49;8.40;;;7.90;;
16804;SDS011;8520;50.102;20.010;2023-02-03T02:20:33;8.20;;;7.70;;
16804;SDS011;8520;50.102;20.010;2023-02-03T02:23:24;8.03;;;7.53;;
16804;SDS011;8520;50.102;20.010;2023-02-03T02:26:14;8.03;;;7.53;;
16804;SDS011;8520;50.102;20.010;2023-02-03T02:29:10;8.00;;;7.47;;
16804;SDS011;8520;50.102;20.010;2023-02-03T02:31:57;7.77;;;7.27;;
16804;SDS011;8520;50.102;20.010;2023-02-03T02:34:37;7.17;;;6.57;;
16804;SDS011;8520;50.102;20.010;2023-02-03T02:37:23;7.17;;;6.67;;
16804;SDS011;8520;50.102;20.010;2023-02-03T02:40:02;7.10;;;6.60;;
16804;SDS011;8520;50.102;20.010;2023-02-03T02:42:40;8.10;;;7.60;;
16804;SDS011;8520;50.102;20.010;2023-02-03T02:45:18;9.13;;;8.53;;
16804;SDS011;8520;50.102;20.010;2023-02-03T02:47:53;11.10;;;10.23;;
16804;SDS011;8520;50.102;20.010;2023-02-03T02:50:30;11.50;;;10.57;;
16804;SDS011;8520;50.102;20.010;2023-02-03T02:53:03;12.43;;;11.33;;
16804;SDS011;8520;50.102;20.010;2023-02-03T02:55:36;11.90;;;11.00;;
16804;SDS011;8520;50.102;20.010;2023-02-03T02:58:07;12.27;;;11.27;;
16804;SDS011;8520;50.102;20.010;2023-02-03T03:00:39;13.17;;;12.07;;
16804;SDS011;8520;50.102;20.010;2023-02-03T03:03:16;13.07;;;12.17;;
16804;SDS011;8520;50.102;20.010;2023-02-03T03:05:47;12.10;;;11.10;;
16804;SDS011;8520;50.102;20.010;2023-02-03T03:08:26;11.60;;;10.80;;
16804;SDS011;8520;50.102;20.010;2023-02-03T03:10:58;12.43;;;11.50;;
16804;SDS011;8520;50.102;20.010;2023-02-03T03:13:30;11.13;;;10.43;;
16804;SDS011;8520;50.102;20.010;2023-02-03T03:16:02;12.00;;;11.20;;
16804;SDS011;8520;50.102;20.010;2023-02-03T03:18:35;12.77;;;11.73;;
16804;SDS011;8520;50.102;20.010;2023-02-03T03:21:09;13.00;;;12.10;;
16804;SDS011;8520;50.102;20.010;2023-02-03T03:23:43;13.57;;;12.57;;
16804;SDS011;8520;50.102;20.010;2023-02-03T03:26:17;12.90;;;12.07;;
16804;SDS011;8520;50.102;20.010;2023-02-03T03:28:49;13.90;;;12.77;;
16804;SDS011;8520;50.102;20.010;2023-02-03T03:31:21;14.27;;;13.07;;
16804;SDS011;8520;50.102;20.010;2023-02-03T03:33:51;14.07;;;13.07;;
16804;SDS011;8520;50.102;20.010;2023-02-03T03:36:21;14.93;;;13.93;;
16804;SDS011;8520;50.102;20.010;2023-02-03T03:38:55;15.13;;;13.90;;
16804;SDS011;8520;50.102;20.010;2023-02-03T03:41:33;14.57;;;13.47;;
16804;SDS011;8520;50.102;20.010;2023-02-03T03:44:08;15.03;;;13.90;;
16804;SDS011;8520;50.102;20.010;2023-02-03T03:46:41;16.27;;;15.07;;
16804;SDS011;8520;50.102;20.010;2023-02-03T03:49:14;15.30;;;14.20;;
16804;SDS011;8520;50.102;20.010;2023-02-03T03:51:43;14.97;;;14.00;;
16804;SDS011;8520;50.102;20.010;2023-02-03T03:54:15;14.93;;;13.80;;
16804;SDS011;8520;50.102;20.010;2023-02-03T03:56:49;15.33;;;14.00;;
16804;SDS011;8520;50.102;20.010;2023-02-03T03:59:21;14.73;;;13.77;;
16804;SDS011;8520;50.102;20.010;2023-02-03T04:01:53;15.33;;;14.23;;
16804;SDS011;8520;50.102;20.010;2023-02-03T04:04:23;14.57;;;13.67;;
16804;SDS011;8520;50.102;20.010;2023-02-03T04:06:53;14.67;;;13.70;;
16804;SDS011;8520;50.102;20.010;2023-02-03T04:09:22;14.40;;;13.33;;
16804;SDS011;8520;50.102;20.010;2023-02-03T04:11:51;14.30;;;13.20;;
16804;SDS011;8520;50.102;20.010;2023-02-03T04:14:28;14.50;;;13.50;;
16804;SDS011;8520;50.102;20.010;2023-02-03T04:16:57;14.13;;;13.10;;
16804;SDS011;8520;50.102;20.010;2023-02-03T04:19:26;13.73;;;12.73;;
16804;SDS011;8520;50.102;20.010;2023-02-03T04:21:55;13.33;;;12.43;;
16804;SDS011;8520;50.102;20.010;2023-02-03T04:24:23;13.37;;;12.47;;
16804;SDS011;8520;50.102;20.010;2023-02-03T04:26:51;13.60;;;12.80;;
16804;SDS011;8520;50.102;20.010;2023-02-03T04:29:19;13.33;;;12.53;;
16804;SDS011;8520;50.102;20.010;2023-02-03T04:31:47;12.97;;;12.07;;
16804;SDS011;8520;50.102;20.010;2023-02-03T04:34:16;13.00;;;12.13;;
16804;SDS011;8520;50.102;20.010;2023-02-03T04:36:45;12.90;;;12.10;;
16804;SDS011;8520;50.102;20.010;2023-02-03T04:39:13;12.63;;;11.83;;
16804;SDS011;8520;50.102;20.010;2023-02-03T04:41:41;13.10;;;12.20;;
16804;SDS011;8520;50.102;20.010;2023-02-03T04:44:09;12.20;;;11.43;;
16804;SDS011;8520;50.102;20.010;2023-02-03T04:46:37;12.57;;;11.77;;
16804;SDS011;8520;50.102;20.010;2023-02-03T04:49:05;13.27;;;12.37;;
16804;SDS011;8520;50.102;20.010;2023-02-03T04:51:37;13.00;;;12.20;;
16804;SDS011;8520;50.102;20.010;2023-02-03T04:54:06;12.53;;;11.73;;
16804;SDS011;8520;50.102;20.010;2023-02-03T04:56:35;12.30;;;11.50;;
16804;SDS011;8520;50.102;20.010;2023-02-03T04:59:03;13.67;;;12.57;;
16804;SDS011;8520;50.102;20.010;2023-02-03T05:01:31;14.37;;;13.40;;
16804;SDS011;8520;50.102;20.010;2023-02-03T05:03:59;14.87;;;13.77;;
16804;SDS011;8520;50.102;20.010;2023-02-03T05:06:27;15.10;;;14.10;;
16804;SDS011;8520;50.102;20.010;2023-02-03T05:08:57;13.93;;;13.03;;
16804;SDS011;8520;50.102;20.010;2023-02-03T05:11:27;14.90;;;13.97;;
16804;SDS011;8520;50.102;20.010;2023-02-03T05:13:56;14.50;;;13.50;;
16804;SDS011;8520;50.102;20.010;2023-02-03T05:16:24;14.50;;;13.40;;
16804;SDS011;8520;50.102;20.010;2023-02-03T05:18:52;14.70;;;13.70;;
16804;SDS011;8520;50.102;20.010;2023-02-03T05:21:20;14.67;;;13.50;;
16804;SDS011;8520;50.102;20.010;2023-02-03T05:23:48;15.00;;;13.90;;
16804;SDS011;8520;50.102;20.010;2023-02-03T05:26:17;14.03;;;13.13;;
16804;SDS011;8520;50.102;20.010;2023-02-03T05:28:46;15.70;;;14.60;;
16804;SDS011;8520;50.102;20.010;2023-02-03T05:31:15;14.83;;;13.70;;
16804;SDS011;8520;50.102;20.010;2023-02-03T05:33:44;15.07;;;13.97;;
16804;SDS011;8520;50.102;20.010;2023-02-03T05:36:12;15.03;;;13.80;;
16804;SDS011;8520;50.102;20.010;2023-02-03T05:38:40;14.93;;;13.97;;
16804;SDS011;8520;50.102;20.010;2023-02-03T05:41:08;15.67;;;14.57;;
16804;SDS011;8520;50.102;20.010;2023-02-03T05:43:55;15.07;;;14.00;;
16804;SDS011;8520;50.102;20.010;2023-02-03T05:46:23;15.00;;;14.00;;
16804;SDS011;8520;50.102;20.010;2023-02-03T05:48:52;15.07;;;13.97;;
16804;SDS011;8520;50.102;20.010;2023-02-03T05:51:20;14.10;;;13.20;;
16804;SDS011;8520;50.102;20.010;2023-02-03T05:53:48;14.93;;;13.83;;
16804;SDS011;8520;50.102;20.010;2023-02-03T05:56:16;14.20;;;13.20;;
16804;SDS011;8520;50.102;20.010;2023-02-03T05:58:44;14.67;;;13.67;;
16804;SDS011;8520;50.102;20.010;2023-02-03T06:01:13;15.17;;;14.10;;
16804;SDS011;8520;50.102;20.010;2023-02-03T06:03:42;15.10;;;14.00;;
16804;SDS011;8520;50.102;20.010;2023-02-03T06:06:11;15.80;;;14.70;;
16804;SDS011;8520;50.102;20.010;2023-02-03T06:08:41;15.40;;;14.23;;
16804;SDS011;8520;50.102;20.010;2023-02-03T06:11:09;16.87;;;15.57;;
16804;SDS011;8520;50.102;20.010;2023-02-03T06:13:38;16.93;;;15.73;;
16804;SDS011;8520;50.102;20.010;2023-02-03T06:16:06;17.33;;;16.03;;
16804;SDS011;8520;50.102;20.010;2023-02-03T06:18:36;16.03;;;14.93;;
16804;SDS011;8520;50.102;20.010;2023-02-03T06:21:04;16.87;;;15.70;;
16804;SDS011;8520;50.102;20.010;2023-02-03T06:23:32;16.53;;;15.33;;
16804;SDS011;8520;50.102;20.010;2023-02-03T06:26:00;17.47;;;16.17;;
16804;SDS011;8520;50.102;20.010;2023-02-03T06:28:28;17.93;;;16.73;;
16804;SDS011;8520;50.102;20.010;2023-02-03T06:30:59;18.00;;;16.77;;
16804;SDS011;8520;50.102;20.010;2023-02-03T06:33:27;18.83;;;17.43;;
16804;SDS011;8520;50.102;20.010;2023-02-03T06:35:57;18.90;;;17.60;;
16804;SDS011;8520;50.102;20.010;2023-02-03T06:38:25;18.53;;;17.13;;
16804;SDS011;8520;50.102;20.010;2023-02-03T06:40:53;17.93;;;16.50;;
16804;SDS011;8520;50.102;20.010;2023-02-03T06:43:21;17.77;;;16.57;;
16804;SDS011;8520;50.102;20.010;2023-02-03T06:45:49;17.00;;;15.70;;
16804;SDS011;8520;50.102;20.010;2023-02-03T06:48:17;17.37;;;15.97;;
16804;SDS011;8520;50.102;20.010;2023-02-03T06:50:45;16.63;;;15.40;;
16804;SDS011;8520;50.102;20.010;2023-02-03T06:53:15;16.47;;;15.27;;
16804;SDS011;8520;50.102;20.010;2023-02-03T06:55:44;16.20;;;15.20;;
16804;SDS011;8520;50.102;20.010;2023-02-03T06:58:13;16.00;;;14.80;;
16804;SDS011;8520;50.102;20.010;2023-02-03T07:00:41;16.20;;;15.10;;
16804;SDS011;8520;50.102;20.010;2023-02-03T07:03:10;15.90;;;14.70;;
16804;SDS011;8520;50.102;20.010;2023-02-03T07:05:38;16.73;;;15.43;;
16804;SDS011;8520;50.102;20.010;2023-02-03T07:08:06;16.27;;;14.83;;
16804;SDS011;8520;50.102;20.010;2023-02-03T07:10:35;16.03;;;14.63;;
16804;SDS011;8520;50.102;20.010;2023-02-03T07:13:04;15.93;;;14.77;;
16804;SDS011;8520;50.102;20.010;2023-02-03T07:15:33;16.97;;;15.83;;
16804;SDS011;8520;50.102;20.010;2023-02-03T07:18:01;15.50;;;14.43;;
16804;SDS011;8520;50.102;20.010;2023-02-03T07:20:29;14.33;;;13.43;;
16804;SDS011;8520;50.102;20.010;2023-02-03T07:22:58;15.87;;;14.77;;
16804;SDS011;8520;50.102;20.010;2023-02-03T07:25:26;15.63;;;14.43;;
16804;SDS011;8520;50.102;20.010;2023-02-03T07:27:56;15.33;;;14.23;;
16804;SDS011;8520;50.102;20.010;2023-02-03T07:30:24;16.50;;;15.20;;
16804;SDS011;8520;50.102;20.010;2023-02-03T07:32:53;15.03;;;13.93;;
16804;SDS011;8520;50.102;20.010;2023-02-03T07:35:21;14.57;;;13.47;;
16804;SDS011;8520;50.102;20.010;2023-02-03T07:37:49;13.23;;;12.33;;
16804;SDS011;8520;50.102;20.010;2023-02-03T07:40:17;13.30;;;12.43;;
16804;SDS011;8520;50.102;20.010;2023-02-03T07:42:46;13.03;;;12.00;;
16804;SDS011;8520;50.102;20.010;2023-02-03T07:45:17;10.97;;;10.27;;
16804;SDS011;8520;50.102;20.010;2023-02-03T07:47:47;12.13;;;11.23;;
16804;SDS011;8520;50.102;20.010;2023-02-03T07:50:16;10.83;;;10.03;;
16804;SDS011;8520;50.102;20.010;2023-02-03T07:52:44;10.90;;;10.00;;
16804;SDS011;8520;50.102;20.010;2023-02-03T07:55:12;10.73;;;9.93;;
16804;SDS011;8520;50.102;20.010;2023-02-03T07:57:40;10.20;;;9.30;;
16804;SDS011;8520;50.102;20.010;2023-02-03T08:00:10;10.50;;;9.70;;
16804;SDS011;8520;50.102;20.010;2023-02-03T08:02:41;9.63;;;8.83;;
16804;SDS011;8520;50.102;20.010;2023-02-03T08:05:10;9.53;;;8.73;;
16804;SDS011;8520;50.102;20.010;2023-02-03T08:07:38;9.10;;;8.40;;
16804;SDS011;8520;50.102;20.010;2023-02-03T08:10:07;9.90;;;9.20;;
16804;SDS011;8520;50.102;20.010;2023-02-03T08:12:37;8.70;;;8.00;;
16804;SDS011;8520;50.102;20.010;2023-02-03T08:15:06;7.83;;;7.23;;
16804;SDS011;8520;50.102;20.010;2023-02-03T08:17:34;7.53;;;6.97;;
16804;SDS011;8520;50.102;20.010;2023-02-03T08:20:07;7.60;;;6.93;;
16804;SDS011;8520;50.102;20.010;2023-02-03T08:22:36;7.83;;;7.23;;
16804;SDS011;8520;50.102;20.010;2023-02-03T08:25:05;8.00;;;7.20;;
16804;SDS011;8520;50.102;20.010;2023-02-03T08:27:34;7.50;;;7.00;;
16804;SDS011;8520;50.102;20.010;2023-02-03T08:30:02;8.07;;;7.40;;
16804;SDS011;8520;50.102;20.010;2023-02-03T08:32:31;7.00;;;6.40;;
16804;SDS011;8520;50.102;20.010;2023-02-03T08:35:00;7.40;;;6.80;;
16804;SDS011;8520;50.102;20.010;2023-02-03T08:37:31;6.97;;;6.40;;
16804;SDS011;8520;50.102;20.010;2023-02-03T08:39:59;6.70;;;6.20;;
16804;SDS011;8520;50.102;20.010;2023-02-03T08:42:27;6.37;;;5.87;;
16804;SDS011;8520;50.102;20.010;2023-02-03T08:44:55;6.53;;;6.07;;
16804;SDS011;8520;50.102;20.010;2023-02-03T08:47:24;6.30;;;5.80;;
16804;SDS011;8520;50.102;20.010;2023-02-03T08:49:53;6.23;;;5.77;;
16804;SDS011;8520;50.102;20.010;2023-02-03T08:52:21;6.60;;;6.10;;
16804;SDS011;8520;50.102;20.010;2023-02-03T08:54:50;6.30;;;5.80;;
16804;SDS011;8520;50.102;20.010;2023-02-03T08:57:18;7.77;;;6.47;;
16804;SDS011;8520;50.102;20.010;2023-02-03T08:59:47;6.23;;;5.73;;
16804;SDS011;8520;50.102;20.010;2023-02-03T09:02:17;5.80;;;5.30;;
16804;SDS011;8520;50.102;20.010;2023-02-03T09:04:46;5.70;;;5.30;;
16804;SDS011;8520;50.102;20.010;2023-02-03T09:07:15;5.73;;;5.27;;
16804;SDS011;8520;50.102;20.010;2023-02-03T09:09:43;5.20;;;4.80;;
16804;SDS011;8520;50.102;20.010;2023-02-03T09:12:13;5.63;;;5.20;;
16804;SDS011;8520;50.102;20.010;2023-02-03T09:14:41;5.53;;;5.07;;
16804;SDS011;8520;50.102;20.010;2023-02-03T09:17:09;5.57;;;5.07;;
16804;SDS011;8520;50.102;20.010;2023-02-03T09:19:38;5.00;;;4.70;;
16804;SDS011;8520;50.102;20.010;2023-02-03T09:22:06;4.80;;;4.40;;
16804;SDS011;8520;50.102;20.010;2023-02-03T09:24:34;5.23;;;4.80;;
16804;SDS011;8520;50.102;20.010;2023-02-03T09:27:03;5.20;;;4.80;;
16804;SDS011;8520;50.102;20.010;2023-02-03T09:29:32;5.70;;;5.20;;
16804;SDS011;8520;50.102;20.010;2023-02-03T09:32:00;5.63;;;5.13;;
16804;SDS011;8520;50.102;20.010;2023-02-03T09:34:33;5.77;;;5.37;;
16804;SDS011;8520;50.102;20.010;2023-02-03T09:37:01;5.77;;;5.37;;
16804;SDS011;8520;50.102;20.010;2023-02-03T09:39:30;6.03;;;5.53;;
16804;SDS011;8520;50.102;20.010;2023-02-03T09:44:57;6.43;;;5.93;;
16804;SDS011;8520;50.102;20.010;2023-02-03T09:47:36;5.90;;;5.40;;
16804;SDS011;8520;50.102;20.010;2023-02-03T09:50:10;5.83;;;5.33;;
16804;SDS011;8520;50.102;20.010;2023-02-03T09:52:41;6.00;;;5.50;;
16804;SDS011;8520;50.102;20.010;2023-02-03T09:55:14;5.87;;;5.43;;
16804;SDS011;8520;50.102;20.010;2023-02-03T09:57:53;6.23;;;5.63;;
16804;SDS011;8520;50.102;20.010;2023-02-03T10:00:29;6.60;;;6.10;;
16804;SDS011;8520;50.102;20.010;2023-02-03T10:03:02;6.50;;;5.97;;
16804;SDS011;8520;50.102;20.010;2023-02-03T10:08:33;7.67;;;6.90;;
16804;SDS011;8520;50.102;20.010;2023-02-03T10:11:13;6.60;;;6.10;;
16804;SDS011;8520;50.102;20.010;2023-02-03T10:13:51;6.53;;;5.27;;
16804;SDS011;8520;50.102;20.010;2023-02-03T10:16:43;6.23;;;5.73;;
16804;SDS011;8520;50.102;20.010;2023-02-03T10:19:19;5.97;;;5.47;;
16804;SDS011;8520;50.102;20.010;2023-02-03T10:21:54;7.07;;;6.47;;
16804;SDS011;8520;50.102;20.010;2023-02-03T10:24:26;7.03;;;6.33;;
16804;SDS011;8520;50.102;20.010;2023-02-03T10:27:01;6.37;;;5.87;;
16804;SDS011;8520;50.102;20.010;2023-02-03T10:29:30;6.00;;;5.50;;
16804;SDS011;8520;50.102;20.010;2023-02-03T10:32:06;6.57;;;5.97;;
16804;SDS011;8520;50.102;20.010;2023-02-03T10:34:36;6.63;;;6.03;;
16804;SDS011;8520;50.102;20.010;2023-02-03T10:37:07;6.13;;;5.63;;
16804;SDS011;8520;50.102;20.010;2023-02-03T10:39:43;7.20;;;6.70;;
16804;SDS011;8520;50.102;20.010;2023-02-03T10:42:14;6.53;;;6.00;;
16804;SDS011;8520;50.102;20.010;2023-02-03T10:44:45;6.50;;;6.00;;
16804;SDS011;8520;50.102;20.010;2023-02-03T10:47:19;6.20;;;5.70;;
16804;SDS011;8520;50.102;20.010;2023-02-03T10:49:51;6.37;;;5.87;;
16804;SDS011;8520;50.102;20.010;2023-02-03T10:52:28;7.43;;;6.83;;
16804;SDS011;8520;50.102;20.010;2023-02-03T10:54:57;6.47;;;5.97;;
16804;SDS011;8520;50.102;20.010;2023-02-03T10:57:27;7.70;;;7.10;;
16804;SDS011;8520;50.102;20.010;2023-02-03T11:00:06;6.83;;;6.20;;
16804;SDS011;8520;50.102;20.010;2023-02-03T11:02:54;6.87;;;6.27;;
16804;SDS011;8520;50.102;20.010;2023-02-03T11:05:24;6.93;;;6.43;;
16804;SDS011;8520;50.102;20.010;2023-02-03T11:07:52;7.27;;;6.67;;
16804;SDS011;8520;50.102;20.010;2023-02-03T11:10:28;7.40;;;6.90;;
16804;SDS011;8520;50.102;20.010;2023-02-03T11:13:10;8.10;;;7.50;;
16804;SDS011;8520;50.102;20.010;2023-02-03T11:15:43;7.30;;;6.90;;
16804;SDS011;8520;50.102;20.010;2023-02-03T11:21:12;7.43;;;6.93;;
16804;SDS011;8520;50.102;20.010;2023-02-03T11:23:45;7.20;;;6.80;;
16804;SDS011;8520;50.102;20.010;2023-02-03T11:26:17;8.10;;;7.60;;
16804;SDS011;8520;50.102;20.010;2023-02-03T11:28:48;8.63;;;8.00;;
16804;SDS011;8520;50.102;20.010;2023-02-03T11:31:21;8.47;;;7.93;;
16804;SDS011;8520;50.102;20.010;2023-02-03T11:33:59;9.40;;;8.80;;
16804;SDS011;8520;50.102;20.010;2023-02-03T11:36:29;10.00;;;9.40;;
16804;SDS011;8520;50.102;20.010;2023-02-03T11:42:01;11.40;;;10.60;;
16804;SDS011;8520;50.102;20.010;2023-02-03T11:44:29;12.40;;;11.33;;
16804;SDS011;8520;50.102;20.010;2023-02-03T11:46:59;12.63;;;11.77;;
16804;SDS011;8520;50.102;20.010;2023-02-03T11:55:32;12.70;;;11.90;;
16804;SDS011;8520;50.102;20.010;2023-02-03T11:58:19;12.40;;;11.60;;
16804;SDS011;8520;50.102;20.010;2023-02-03T12:01:09;12.80;;;12.10;;
16804;SDS011;8520;50.102;20.010;2023-02-03T12:03:52;13.07;;;12.27;;
16804;SDS011;8520;50.102;20.010;2023-02-03T12:06:38;13.67;;;12.80;;
16804;SDS011;8520;50.102;20.010;2023-02-03T12:09:28;14.57;;;13.57;;
16804;SDS011;8520;50.102;20.010;2023-02-03T12:12:18;14.57;;;13.73;;
16804;SDS011;8520;50.102;20.010;2023-02-03T12:14:58;15.43;;;14.53;;
16804;SDS011;8520;50.102;20.010;2023-02-03T12:20:32;15.50;;;14.60;;
16804;SDS011;8520;50.102;20.010;2023-02-03T12:23:12;15.53;;;14.73;;
16804;SDS011;8520;50.102;20.010;2023-02-03T12:25:57;16.63;;;15.73;;
16804;SDS011;8520;50.102;20.010;2023-02-03T12:28:44;16.83;;;15.83;;
16804;SDS011;8520;50.102;20.010;2023-02-03T12:31:18;17.20;;;16.20;;
16804;SDS011;8520;50.102;20.010;2023-02-03T12:33:57;17.80;;;16.73;;
16804;SDS011;8520;50.102;20.010;2023-02-03T12:36:34;17.33;;;16.33;;
16804;SDS011;8520;50.102;20.010;2023-02-03T12:39:12;17.57;;;16.53;;
16804;SDS011;8520;50.102;20.010;2023-02-03T12:41:47;17.30;;;16.20;;
16804;SDS011;8520;50.102;20.010;2023-02-03T12:44:20;17.20;;;16.20;;
16804;SDS011;8520;50.102;20.010;2023-02-03T12:46:54;19.10;;;17.90;;
16804;SDS011;8520;50.102;20.010;2023-02-03T12:49:33;18.60;;;17.50;;
16804;SDS011;8520;50.102;20.010;2023-02-03T12:52:10;18.87;;;17.73;;
16804;SDS011;8520;50.102;20.010;2023-02-03T12:54:45;19.77;;;18.47;;
16804;SDS011;8520;50.102;20.010;2023-02-03T12:57:22;19.73;;;18.63;;
16804;SDS011;8520;50.102;20.010;2023-02-03T12:59:57;19.73;;;18.67;;
16804;SDS011;8520;50.102;20.010;2023-02-03T13:02:34;21.27;;;20.07;;
16804;SDS011;8520;50.102;20.010;2023-02-03T13:05:14;21.70;;;20.47;;
16804;SDS011;8520;50.102;20.010;2023-02-03T13:07:50;22.37;;;21.10;;
16804;SDS011;8520;50.102;20.010;2023-02-03T13:10:27;22.23;;;20.93;;
16804;SDS011;8520;50.102;20.010;2023-02-03T13:13:02;23.27;;;21.87;;
16804;SDS011;8520;50.102;20.010;2023-02-03T13:15:36;23.00;;;21.70;;
16804;SDS011;8520;50.102;20.010;2023-02-03T13:18:08;24.00;;;22.73;;
16804;SDS011;8520;50.102;20.010;2023-02-03T13:20:45;23.87;;;22.40;;
16804;SDS011;8520;50.102;20.010;2023-02-03T13:23:13;24.33;;;22.93;;
16804;SDS011;8520;50.102;20.010;2023-02-03T13:25:47;25.13;;;23.63;;
16804;SDS011;8520;50.102;20.010;2023-02-03T13:28:31;25.20;;;23.63;;
16804;SDS011;8520;50.102;20.010;2023-02-03T13:31:17;24.73;;;23.37;;
16804;SDS011;8520;50.102;20.010;2023-02-03T13:33:59;26.00;;;24.50;;
16804;SDS011;8520;50.102;20.010;2023-02-03T13:37:01;26.23;;;24.73;;
16804;SDS011;8520;50.102;20.010;2023-02-03T13:39:45;25.40;;;23.93;;
16804;SDS011;8520;50.102;20.010;2023-02-03T13:42:24;25.30;;;24.00;;
16804;SDS011;8520;50.102;20.010;2023-02-03T13:44:55;25.33;;;23.97;;
16804;SDS011;8520;50.102;20.010;2023-02-03T13:47:27;26.13;;;24.77;;
16804;SDS011;8520;50.102;20.010;2023-02-03T13:49:58;26.33;;;24.77;;
16804;SDS011;8520;50.102;20.010;2023-02-03T13:52:33;27.50;;;25.73;;
16804;SDS011;8520;50.102;20.010;2023-02-03T13:55:04;27.37;;;25.73;;
16804;SDS011;8520;50.102;20.010;2023-02-03T13:57:36;26.77;;;25.30;;
16804;SDS011;8520;50.102;20.010;2023-02-03T14:00:06;26.83;;;25.30;;
16804;SDS011;8520;50.102;20.010;2023-02-03T14:02:57;27.60;;;26.20;;
16804;SDS011;8520;50.102;20.010;2023-02-03T14:05:39;27.30;;;25.90;;
16804;SDS011;8520;50.102;20.010;2023-02-03T14:23:24;30.67;;;29.07;;
16804;SDS011;8520;50.102;20.010;2023-02-03T14:25:54;31.00;;;29.30;;
16804;SDS011;8520;50.102;20.010;2023-02-03T14:28:28;31.80;;;30.10;;
16804;SDS011;8520;50.102;20.010;2023-02-03T14:31:08;30.60;;;29.10;;
16804;SDS011;8520;50.102;20.010;2023-02-03T14:33:55;30.47;;;29.07;;
16804;SDS011;8520;50.102;20.010;2023-02-03T14:36:33;31.00;;;29.60;;
16804;SDS011;8520;50.102;20.010;2023-02-03T14:42:26;32.80;;;31.17;;
16804;SDS011;8520;50.102;20.010;2023-02-03T14:45:14;33.43;;;31.83;;
16804;SDS011;8520;50.102;20.010;2023-02-03T14:47:57;34.43;;;32.73;;
16804;SDS011;8520;50.102;20.010;2023-02-03T14:50:39;34.90;;;33.20;;
16804;SDS011;8520;50.102;20.010;2023-02-03T14:53:25;35.37;;;33.57;;
16804;SDS011;8520;50.102;20.010;2023-02-03T14:56:10;36.60;;;34.80;;
16804;SDS011;8520;50.102;20.010;2023-02-03T14:58:46;37.50;;;35.50;;
16804;SDS011;8520;50.102;20.010;2023-02-03T15:01:24;36.53;;;34.63;;
16804;SDS011;8520;50.102;20.010;2023-02-03T15:06:49;35.63;;;33.93;;
16804;SDS011;8520;50.102;20.010;2023-02-03T15:09:21;35.40;;;33.77;;
16804;SDS011;8520;50.102;20.010;2023-02-03T15:11:55;34.57;;;32.83;;
16804;SDS011;8520;50.102;20.010;2023-02-03T15:14:24;35.40;;;33.70;;
16804;SDS011;8520;50.102;20.010;2023-02-03T15:16:54;35.13;;;33.33;;
16804;SDS011;8520;50.102;20.010;2023-02-03T15:19:26;35.07;;;33.37;;
16804;SDS011;8520;50.102;20.010;2023-02-03T15:21:56;34.70;;;33.10;;
16804;SDS011;8520;50.102;20.010;2023-02-03T15:24:24;34.07;;;32.57;;
16804;SDS011;8520;50.102;20.010;2023-02-03T15:26:53;34.40;;;32.87;;
16804;SDS011;8520;50.102;20.010;2023-02-03T15:29:25;35.30;;;33.60;;
16804;SDS011;8520;50.102;20.010;2023-02-03T15:32:00;35.90;;;34.20;;
16804;SDS011;8520;50.102;20.010;2023-02-03T15:34:34;36.60;;;34.80;;
16804;SDS011;8520;50.102;20.010;2023-02-03T15:37:06;37.37;;;35.67;;
16804;SDS011;8520;50.102;20.010;2023-02-03T15:39:41;37.63;;;35.63;;
16804;SDS011;8520;50.102;20.010;2023-02-03T15:42:18;37.83;;;35.93;;